createdAt,value
2023-12-09T00:00:33.722Z,992.60
2023-12-09T00:01:33.758Z,992.61
2023-12-09T00:02:33.607Z,992.60
2023-12-09T00:03:33.705Z,992.59
2023-12-09T00:04:33.660Z,992.63
2023-12-09T00:05:33.627Z,992.57
2023-12-09T00:06:33.663Z,992.60
2023-12-09T00:07:33.569Z,992.54
2023-12-09T00:08:34.325Z,992.56
2023-12-09T00:09:33.567Z,992.58
2023-12-09T00:10:33.670Z,992.58
2023-12-09T00:11:33.551Z,992.57
2023-12-09T00:12:33.574Z,992.56
2023-12-09T00:13:33.528Z,992.57
2023-12-09T00:14:33.545Z,992.59
2023-12-09T00:15:33.558Z,992.54
2023-12-09T00:16:33.550Z,992.54
2023-12-09T00:17:33.507Z,992.59
2023-12-09T00:18:33.642Z,992.55
2023-12-09T00:19:33.564Z,992.57
2023-12-09T00:20:33.471Z,992.62
2023-12-09T00:21:33.566Z,992.59
2023-12-09T00:22:33.468Z,992.59
2023-12-09T00:23:33.449Z,992.55
2023-12-09T00:24:33.504Z,992.55
2023-12-09T00:25:33.447Z,992.56
2023-12-09T00:26:33.521Z,992.62
2023-12-09T00:27:33.489Z,992.62
2023-12-09T00:28:33.411Z,992.62
2023-12-09T00:29:33.441Z,992.65
2023-12-09T00:30:33.505Z,992.63
2023-12-09T00:31:33.386Z,992.65
2023-12-09T00:32:33.423Z,992.63
2023-12-09T00:33:33.512Z,992.57
2023-12-09T00:34:33.409Z,992.63
2023-12-09T00:35:33.383Z,992.57
2023-12-09T00:36:33.449Z,992.65
2023-12-09T00:37:33.365Z,992.64
2023-12-09T00:38:33.435Z,992.63
2023-12-09T00:39:33.596Z,992.65
2023-12-09T00:40:33.322Z,992.65
2023-12-09T00:41:33.319Z,992.65
2023-12-09T00:42:33.360Z,992.63
2023-12-09T00:43:33.444Z,992.65
2023-12-09T00:44:33.296Z,992.70
2023-12-09T00:45:33.376Z,992.68
2023-12-09T00:46:33.274Z,992.66
2023-12-09T00:47:33.281Z,992.66
2023-12-09T00:48:33.400Z,992.62
2023-12-09T00:49:33.384Z,992.72
2023-12-09T00:50:33.245Z,992.66
2023-12-09T00:51:33.365Z,992.69
2023-12-09T00:52:33.277Z,992.68
2023-12-09T00:53:33.277Z,992.71
2023-12-09T00:54:33.264Z,992.74
2023-12-09T00:55:34.233Z,992.73
2023-12-09T00:56:35.391Z,992.73
2023-12-09T00:57:33.442Z,992.80
2023-12-09T00:58:33.205Z,992.82
2023-12-09T00:59:33.177Z,992.86
2023-12-09T01:00:33.227Z,992.78
2023-12-09T01:01:33.157Z,992.85
2023-12-09T01:02:33.290Z,992.85
2023-12-09T01:03:33.246Z,992.83
2023-12-09T01:04:33.168Z,992.81
2023-12-09T01:05:33.194Z,992.81
2023-12-09T01:06:33.266Z,992.86
2023-12-09T01:07:33.144Z,992.83
2023-12-09T01:08:33.117Z,992.86
2023-12-09T01:09:33.148Z,992.79
2023-12-09T01:10:33.122Z,992.81
2023-12-09T01:11:33.109Z,992.89
2023-12-09T01:12:33.138Z,992.84
2023-12-09T01:13:33.088Z,992.95
2023-12-09T01:14:33.063Z,992.89
2023-12-09T01:15:33.132Z,992.94
2023-12-09T01:16:33.070Z,992.95
2023-12-09T01:17:33.116Z,992.96
2023-12-09T01:18:33.106Z,992.97
2023-12-09T01:19:33.053Z,992.92
2023-12-09T01:20:33.094Z,992.94
2023-12-09T01:21:33.081Z,993.00
2023-12-09T01:22:32.991Z,992.97
2023-12-09T01:23:33.001Z,992.97
2023-12-09T01:24:33.027Z,992.97
2023-12-09T01:25:33.003Z,992.95
2023-12-09T01:26:32.987Z,992.98
2023-12-09T01:27:32.982Z,992.98
2023-12-09T01:28:32.946Z,993.01
2023-12-09T01:29:32.947Z,993.05
2023-12-09T01:30:33.007Z,993.05
2023-12-09T01:31:32.927Z,992.99
2023-12-09T01:32:33.956Z,993.03
2023-12-09T01:33:33.056Z,993.12
2023-12-09T01:34:33.192Z,993.07
2023-12-09T01:35:32.930Z,993.10
2023-12-09T01:36:32.968Z,993.09
2023-12-09T01:37:32.888Z,993.09
2023-12-09T01:38:32.908Z,993.18
2023-12-09T01:39:33.030Z,993.14
2023-12-09T01:40:32.924Z,993.10
2023-12-09T01:41:32.895Z,993.12
2023-12-09T01:42:32.895Z,993.07
2023-12-09T01:43:32.844Z,993.09
2023-12-09T01:44:32.874Z,993.11
2023-12-09T01:45:32.894Z,993.09
2023-12-09T01:46:32.833Z,993.06
2023-12-09T01:47:32.845Z,993.13
2023-12-09T01:48:33.158Z,993.04
2023-12-09T01:49:32.962Z,993.13
2023-12-09T01:50:32.991Z,993.05
2023-12-09T01:51:32.834Z,993.12
2023-12-09T01:52:32.784Z,993.21
2023-12-09T01:53:32.806Z,993.18
2023-12-09T01:54:32.807Z,993.10
2023-12-09T01:55:32.780Z,993.22
2023-12-09T01:56:32.759Z,993.23
2023-12-09T01:57:32.805Z,993.19
2023-12-09T01:58:32.767Z,993.09
2023-12-09T01:59:32.758Z,993.10
2023-12-09T02:00:32.795Z,993.11
2023-12-09T02:01:32.737Z,993.10
2023-12-09T02:02:32.794Z,993.15
2023-12-09T02:03:32.815Z,993.15
2023-12-09T02:04:32.768Z,993.13
2023-12-09T02:05:32.710Z,993.14
2023-12-09T02:06:32.703Z,993.12
2023-12-09T02:07:32.742Z,993.12
2023-12-09T02:08:32.715Z,993.16
2023-12-09T02:09:32.660Z,993.09
2023-12-09T02:10:32.644Z,993.14
2023-12-09T02:11:32.640Z,993.16
2023-12-09T02:12:32.705Z,993.16
2023-12-09T02:13:32.623Z,993.24
2023-12-09T02:14:32.619Z,993.25
2023-12-09T02:15:32.632Z,993.15
2023-12-09T02:16:32.644Z,993.22
2023-12-09T02:17:32.680Z,993.20
2023-12-09T02:18:32.666Z,993.23
2023-12-09T02:19:32.638Z,993.16
2023-12-09T02:20:32.591Z,993.08
2023-12-09T02:21:32.628Z,993.07
2023-12-09T02:22:32.558Z,993.06
2023-12-09T02:23:32.549Z,993.06
2023-12-09T02:24:32.584Z,993.14
2023-12-09T02:25:32.546Z,993.04
2023-12-09T02:26:32.560Z,993.07
2023-12-09T02:27:32.537Z,993.04
2023-12-09T02:28:32.544Z,993.02
2023-12-09T02:29:32.501Z,993.06
2023-12-09T02:30:32.578Z,993.08
2023-12-09T02:31:32.543Z,993.13
2023-12-09T02:32:32.552Z,993.00
2023-12-09T02:33:32.586Z,992.96
2023-12-09T02:34:32.618Z,993.04
2023-12-09T02:35:32.481Z,993.02
2023-12-09T02:36:32.600Z,993.02
2023-12-09T02:37:32.463Z,993.03
2023-12-09T02:38:32.431Z,992.98
2023-12-09T02:39:32.478Z,993.04
2023-12-09T02:40:32.455Z,992.99
2023-12-09T02:41:32.416Z,993.00
2023-12-09T02:42:32.454Z,992.92
2023-12-09T02:43:32.396Z,992.92
2023-12-09T02:44:32.427Z,992.91
2023-12-09T02:45:32.476Z,992.91
2023-12-09T02:46:32.381Z,992.84
2023-12-09T02:47:32.402Z,992.84
2023-12-09T02:48:32.490Z,992.84
2023-12-09T02:49:33.518Z,992.83
2023-12-09T02:50:32.345Z,992.83
2023-12-09T02:51:32.464Z,992.74
2023-12-09T02:52:32.376Z,992.69
2023-12-09T02:53:32.325Z,992.65
2023-12-09T02:54:32.444Z,992.66
2023-12-09T02:55:32.321Z,992.66
2023-12-09T02:56:32.306Z,992.62
2023-12-09T02:57:32.323Z,992.64
2023-12-09T02:58:32.290Z,992.67
2023-12-09T02:59:32.308Z,992.68
2023-12-09T03:00:32.366Z,992.73
2023-12-09T03:01:32.292Z,992.72
2023-12-09T03:02:32.255Z,992.66
2023-12-09T03:03:32.339Z,992.59
2023-12-09T03:04:32.293Z,992.63
2023-12-09T03:05:32.256Z,992.55
2023-12-09T03:06:32.269Z,992.57
2023-12-09T03:07:32.216Z,992.53
2023-12-09T03:08:32.268Z,992.52
2023-12-09T03:09:32.253Z,992.50
2023-12-09T03:10:32.194Z,992.52
2023-12-09T03:11:32.190Z,992.52
2023-12-09T03:12:32.246Z,992.48
2023-12-09T03:13:32.228Z,992.47
2023-12-09T03:14:32.170Z,992.41
2023-12-09T03:15:32.202Z,992.39
2023-12-09T03:16:32.158Z,992.39
2023-12-09T03:17:32.294Z,992.29
2023-12-09T03:18:32.394Z,992.17
2023-12-09T03:19:32.209Z,992.24
2023-12-09T03:20:32.120Z,992.29
2023-12-09T03:21:32.158Z,992.30
2023-12-09T03:22:32.161Z,992.24
2023-12-09T03:23:32.099Z,992.24
2023-12-09T03:24:32.118Z,992.17
2023-12-09T03:25:32.087Z,992.26
2023-12-09T03:26:32.070Z,992.18
2023-12-09T03:27:32.116Z,992.13
2023-12-09T03:28:32.064Z,992.15
2023-12-09T03:29:32.057Z,992.21
2023-12-09T03:30:32.180Z,992.21
2023-12-09T03:31:32.042Z,992.14
2023-12-09T03:32:32.145Z,992.19
2023-12-09T03:33:32.118Z,992.18
2023-12-09T03:34:32.135Z,992.25
2023-12-09T03:35:32.001Z,992.27
2023-12-09T03:36:32.132Z,992.26
2023-12-09T03:37:32.020Z,992.26
2023-12-09T03:38:31.980Z,992.26
2023-12-09T03:39:32.084Z,992.31
2023-12-09T03:40:31.972Z,992.33
2023-12-09T03:41:31.999Z,992.33
2023-12-09T03:42:31.993Z,992.32
2023-12-09T03:43:31.963Z,992.31
2023-12-09T03:44:31.941Z,992.33
2023-12-09T03:45:31.982Z,992.34
2023-12-09T03:46:31.948Z,992.33
2023-12-09T03:47:31.937Z,992.36
2023-12-09T03:48:32.152Z,992.41
2023-12-09T03:49:31.995Z,992.43
2023-12-09T03:50:31.922Z,992.39
2023-12-09T03:51:31.980Z,992.35
2023-12-09T03:52:31.872Z,992.29
2023-12-09T03:53:31.869Z,992.30
2023-12-09T03:54:31.922Z,992.27
2023-12-09T03:55:31.895Z,992.24
2023-12-09T03:56:31.839Z,992.11
2023-12-09T03:57:31.875Z,992.23
2023-12-09T03:58:32.829Z,992.21
2023-12-09T04:00:03.820Z,992.24
2023-12-09T04:00:31.848Z,992.21
2023-12-09T04:01:31.853Z,992.25
2023-12-09T04:02:31.801Z,992.21
2023-12-09T04:03:31.880Z,992.19
2023-12-09T04:04:31.888Z,992.25
2023-12-09T04:05:31.813Z,992.20
2023-12-09T04:06:31.782Z,992.30
2023-12-09T04:07:31.761Z,992.30
2023-12-09T04:08:31.767Z,992.19
2023-12-09T04:09:31.822Z,992.22
2023-12-09T04:10:31.747Z,992.21
2023-12-09T04:11:31.723Z,992.25
2023-12-09T04:12:31.739Z,992.23
2023-12-09T04:13:31.717Z,992.16
2023-12-09T04:14:32.741Z,992.21
2023-12-09T04:15:31.808Z,992.11
2023-12-09T04:16:31.760Z,992.11
2023-12-09T04:17:31.715Z,992.11
2023-12-09T04:18:31.794Z,992.08
2023-12-09T04:19:31.883Z,992.16
2023-12-09T04:20:31.722Z,992.13
2023-12-09T04:21:31.738Z,992.14
2023-12-09T04:22:31.657Z,992.04
2023-12-09T04:23:31.674Z,992.12
2023-12-09T04:24:31.708Z,992.10
2023-12-09T04:25:31.640Z,992.07
2023-12-09T04:26:31.620Z,992.15
2023-12-09T04:27:31.648Z,992.10
2023-12-09T04:28:31.642Z,992.03
2023-12-09T04:29:31.607Z,992.11
2023-12-09T04:30:31.602Z,992.03
2023-12-09T04:31:31.585Z,992.05
2023-12-09T04:32:31.622Z,992.06
2023-12-09T04:33:31.584Z,992.06
2023-12-09T04:34:31.563Z,992.09
2023-12-09T04:35:31.577Z,992.04
2023-12-09T04:36:31.741Z,992.14
2023-12-09T04:37:31.567Z,992.18
2023-12-09T04:38:31.524Z,992.14
2023-12-09T04:39:31.520Z,992.02
2023-12-09T04:40:31.525Z,992.02
2023-12-09T04:41:31.524Z,991.93
2023-12-09T04:42:31.733Z,991.87
2023-12-09T04:43:31.501Z,991.89
2023-12-09T04:44:31.495Z,991.85
2023-12-09T04:45:31.517Z,991.89
2023-12-09T04:46:31.469Z,991.82
2023-12-09T04:47:31.544Z,991.89
2023-12-09T04:48:31.721Z,991.96
2023-12-09T04:49:31.546Z,991.84
2023-12-09T04:50:31.464Z,991.90
2023-12-09T04:51:31.548Z,991.91
2023-12-09T04:52:31.453Z,991.86
2023-12-09T04:53:31.416Z,991.92
2023-12-09T04:54:31.478Z,991.86
2023-12-09T04:55:31.421Z,991.90
2023-12-09T04:56:31.418Z,991.79
2023-12-09T04:57:31.476Z,991.90
2023-12-09T04:58:31.383Z,991.88
2023-12-09T04:59:31.373Z,991.95
2023-12-09T05:00:31.410Z,991.91
2023-12-09T05:01:31.426Z,991.87
2023-12-09T05:02:31.339Z,991.83
2023-12-09T05:03:31.442Z,991.74
2023-12-09T05:04:31.389Z,991.83
2023-12-09T05:05:31.370Z,991.73
2023-12-09T05:06:31.453Z,991.69
2023-12-09T05:07:31.317Z,991.60
2023-12-09T05:08:31.310Z,991.67
2023-12-09T05:09:31.317Z,991.61
2023-12-09T05:10:31.310Z,991.67
2023-12-09T05:11:31.329Z,991.72
2023-12-09T05:12:31.693Z,991.66
2023-12-09T05:13:31.293Z,991.65
2023-12-09T05:14:31.273Z,991.72
2023-12-09T05:15:33.582Z,991.66
2023-12-09T05:16:32.244Z,991.68
2023-12-09T05:17:31.279Z,991.67
2023-12-09T05:18:31.373Z,991.71
2023-12-09T05:19:31.345Z,991.67
2023-12-09T05:20:31.245Z,991.66
2023-12-09T05:21:35.622Z,991.63
2023-12-09T05:22:32.199Z,991.70
2023-12-09T05:23:31.192Z,991.71
2023-12-09T05:24:31.232Z,991.80
2023-12-09T05:25:31.195Z,991.84
2023-12-09T05:26:31.179Z,991.78
2023-12-09T05:27:31.248Z,991.85
2023-12-09T05:28:31.175Z,991.84
2023-12-09T05:29:31.180Z,991.85
2023-12-09T05:30:31.156Z,991.85
2023-12-09T05:31:31.131Z,991.87
2023-12-09T05:32:31.164Z,991.98
2023-12-09T05:33:31.244Z,991.91
2023-12-09T05:34:31.307Z,991.91
2023-12-09T05:35:31.113Z,991.92
2023-12-09T05:36:31.159Z,992.01
2023-12-09T05:37:31.146Z,991.93
2023-12-09T05:38:31.117Z,991.91
2023-12-09T05:39:31.138Z,991.84
2023-12-09T05:40:34.254Z,991.83
2023-12-09T05:41:31.072Z,991.83
2023-12-09T05:42:31.342Z,991.80
2023-12-09T05:43:31.072Z,991.81
2023-12-09T05:44:31.032Z,991.81
2023-12-09T05:45:31.115Z,991.83
2023-12-09T05:46:31.034Z,991.83
2023-12-09T05:47:31.024Z,991.81
2023-12-09T05:48:31.152Z,991.85
2023-12-09T05:49:31.094Z,991.86
2023-12-09T05:50:31.004Z,991.88
2023-12-09T05:51:31.146Z,991.90
2023-12-09T05:52:31.029Z,991.95
2023-12-09T05:53:31.023Z,991.88
2023-12-09T05:54:30.995Z,991.96
2023-12-09T05:55:30.961Z,991.95
2023-12-09T05:56:30.975Z,991.95
2023-12-09T05:57:31.301Z,992.07
2023-12-09T05:58:30.944Z,991.98
2023-12-09T05:59:30.932Z,991.95
2023-12-09T06:00:31.170Z,992.00
2023-12-09T06:01:31.028Z,991.92
2023-12-09T06:02:31.000Z,991.92
2023-12-09T06:03:30.964Z,991.89
2023-12-09T06:04:30.925Z,991.77
2023-12-09T06:05:30.920Z,991.76
2023-12-09T06:06:31.226Z,991.78
2023-12-09T06:07:31.269Z,991.75
2023-12-09T06:08:30.907Z,991.76
2023-12-09T06:09:30.926Z,991.65
2023-12-09T06:10:30.852Z,991.64
2023-12-09T06:11:30.871Z,991.64
2023-12-09T06:12:31.190Z,991.64
2023-12-09T06:13:30.823Z,991.66
2023-12-09T06:14:30.824Z,991.67
2023-12-09T06:15:30.848Z,991.67
2023-12-09T06:16:30.856Z,991.62
2023-12-09T06:17:30.816Z,991.69
2023-12-09T06:18:30.876Z,991.59
2023-12-09T06:19:30.842Z,991.55
2023-12-09T06:20:30.777Z,991.56
2023-12-09T06:21:30.850Z,991.56
2023-12-09T06:22:30.780Z,991.50
2023-12-09T06:23:30.764Z,991.56
2023-12-09T06:24:30.833Z,991.56
2023-12-09T06:25:30.768Z,991.56
2023-12-09T06:26:30.747Z,991.54
2023-12-09T06:27:30.797Z,991.55
2023-12-09T06:28:30.718Z,991.46
2023-12-09T06:29:30.713Z,991.52
2023-12-09T06:30:30.788Z,991.49
2023-12-09T06:31:30.703Z,991.48
2023-12-09T06:32:30.941Z,991.56
2023-12-09T06:33:30.787Z,991.55
2023-12-09T06:34:30.721Z,991.50
2023-12-09T06:35:30.673Z,991.64
2023-12-09T06:36:30.680Z,991.55
2023-12-09T06:37:30.768Z,991.59
2023-12-09T06:38:30.637Z,991.58
2023-12-09T06:39:30.716Z,991.65
2023-12-09T06:40:30.669Z,991.61
2023-12-09T06:41:30.631Z,991.67
2023-12-09T06:42:30.806Z,991.71
2023-12-09T06:43:30.609Z,991.70
2023-12-09T06:44:30.618Z,991.73
2023-12-09T06:45:30.582Z,991.70
2023-12-09T06:46:30.593Z,991.65
2023-12-09T06:47:30.645Z,991.66
2023-12-09T06:48:30.751Z,991.64
2023-12-09T06:49:30.636Z,991.68
2023-12-09T06:50:30.545Z,991.65
2023-12-09T06:51:30.591Z,991.62
2023-12-09T06:52:30.553Z,991.60
2023-12-09T06:53:30.562Z,991.48
2023-12-09T06:54:30.638Z,991.51
2023-12-09T06:55:30.527Z,991.52
2023-12-09T06:56:30.517Z,991.52
2023-12-09T06:57:30.519Z,991.48
2023-12-09T06:58:30.560Z,991.57
2023-12-09T06:59:30.495Z,991.55
2023-12-09T07:00:30.536Z,991.49
2023-12-09T07:01:30.517Z,991.52
2023-12-09T07:02:40.999Z,991.52
2023-12-09T07:03:32.565Z,991.53
2023-12-09T07:04:30.673Z,991.54
2023-12-09T07:05:30.471Z,991.50
2023-12-09T07:06:30.491Z,991.43
2023-12-09T07:07:30.425Z,991.43
2023-12-09T07:08:30.926Z,991.45
2023-12-09T07:09:31.439Z,991.42
2023-12-09T07:10:30.400Z,991.39
2023-12-09T07:11:30.410Z,991.44
2023-12-09T07:12:30.748Z,991.34
2023-12-09T07:13:30.444Z,991.38
2023-12-09T07:14:30.374Z,991.36
2023-12-09T07:15:30.394Z,991.38
2023-12-09T07:16:30.368Z,991.35
2023-12-09T07:17:30.401Z,991.37
2023-12-09T07:18:30.479Z,991.37
2023-12-09T07:19:30.387Z,991.44
2023-12-09T07:20:30.351Z,991.37
2023-12-09T07:21:30.472Z,991.42
2023-12-09T07:22:30.461Z,991.37
2023-12-09T07:23:30.330Z,991.46
2023-12-09T07:24:30.379Z,991.40
2023-12-09T07:25:30.296Z,991.31
2023-12-09T07:26:30.283Z,991.35
2023-12-09T07:27:30.430Z,991.35
2023-12-09T07:28:30.288Z,991.26
2023-12-09T07:29:32.257Z,991.40
2023-12-09T07:30:31.297Z,991.34
2023-12-09T07:31:30.256Z,991.27
2023-12-09T07:32:30.628Z,991.33
2023-12-09T07:33:30.331Z,991.26
2023-12-09T07:34:30.289Z,991.28
2023-12-09T07:35:30.247Z,991.27
2023-12-09T07:36:30.303Z,991.26
2023-12-09T07:37:30.343Z,991.24
2023-12-09T07:38:30.204Z,991.31
2023-12-09T07:39:30.204Z,991.23
2023-12-09T07:40:30.184Z,991.29
2023-12-09T07:41:30.227Z,991.30
2023-12-09T07:42:30.672Z,991.34
2023-12-09T07:43:30.161Z,991.30
2023-12-09T07:44:30.166Z,991.33
2023-12-09T07:45:30.216Z,991.26
2023-12-09T07:46:30.173Z,991.35
2023-12-09T07:47:30.196Z,991.35
2023-12-09T07:48:30.196Z,991.36
2023-12-09T07:49:30.209Z,991.39
2023-12-09T07:50:30.135Z,991.31
2023-12-09T07:51:30.225Z,991.28
2023-12-09T07:52:30.278Z,991.34
2023-12-09T07:53:30.102Z,991.35
2023-12-09T07:54:30.124Z,991.24
2023-12-09T07:55:30.109Z,991.22
2023-12-09T07:56:30.069Z,991.26
2023-12-09T07:57:30.096Z,991.18
2023-12-09T07:58:30.059Z,991.24
2023-12-09T07:59:30.053Z,991.23
2023-12-09T08:00:30.161Z,991.19
2023-12-09T08:01:30.056Z,991.20
2023-12-09T08:02:30.029Z,991.11
2023-12-09T08:03:30.083Z,991.18
2023-12-09T08:04:30.081Z,991.15
2023-12-09T08:05:30.077Z,991.07
2023-12-09T08:06:31.002Z,991.09
2023-12-09T08:07:30.187Z,991.11
2023-12-09T08:08:29.986Z,991.01
2023-12-09T08:09:30.019Z,990.94
2023-12-09T08:10:30.021Z,990.97
2023-12-09T08:11:29.966Z,991.00
2023-12-09T08:12:30.181Z,990.96
2023-12-09T08:13:29.958Z,991.04
2023-12-09T08:14:29.960Z,991.05
2023-12-09T08:15:29.963Z,991.06
2023-12-09T08:16:29.934Z,991.04
2023-12-09T08:17:30.217Z,991.01
2023-12-09T08:18:30.121Z,991.07
2023-12-09T08:19:30.018Z,991.10
2023-12-09T08:20:29.894Z,991.10
2023-12-09T08:21:29.921Z,991.09
2023-12-09T08:22:30.020Z,991.08
2023-12-09T08:23:29.865Z,991.05
2023-12-09T08:24:29.962Z,991.12
2023-12-09T08:25:29.858Z,991.08
2023-12-09T08:26:29.851Z,991.11
2023-12-09T08:27:29.849Z,991.11
2023-12-09T08:28:29.837Z,991.16
2023-12-09T08:29:30.156Z,991.11
2023-12-09T08:30:29.910Z,991.05
2023-12-09T08:31:29.813Z,991.13
2023-12-09T08:32:29.923Z,991.07
2023-12-09T08:33:29.935Z,991.13
2023-12-09T08:34:29.894Z,991.05
2023-12-09T08:35:30.844Z,991.03
2023-12-09T08:36:29.810Z,991.05
2023-12-09T08:37:29.790Z,991.03
2023-12-09T08:38:29.781Z,990.99
2023-12-09T08:39:29.815Z,990.98
2023-12-09T08:40:29.744Z,991.03
2023-12-09T08:41:30.941Z,990.96
2023-12-09T08:42:31.057Z,990.93
2023-12-09T08:43:29.752Z,990.96
2023-12-09T08:44:29.726Z,990.85
2023-12-09T08:45:29.761Z,990.95
2023-12-09T08:46:29.697Z,990.92
2023-12-09T08:47:29.734Z,990.91
2023-12-09T08:48:29.860Z,990.83
2023-12-09T08:49:29.780Z,990.72
2023-12-09T08:50:29.680Z,990.77
2023-12-09T08:51:29.688Z,990.73
2023-12-09T08:52:29.926Z,990.69
2023-12-09T08:53:29.672Z,990.74
2023-12-09T08:54:29.661Z,990.68
2023-12-09T08:55:30.647Z,990.67
2023-12-09T08:56:29.632Z,990.74
2023-12-09T08:57:29.668Z,990.75
2023-12-09T08:58:29.638Z,990.71
2023-12-09T08:59:29.604Z,990.76
2023-12-09T09:00:30.398Z,990.66
2023-12-09T09:01:29.666Z,990.70
2023-12-09T09:02:29.645Z,990.67
2023-12-09T09:03:29.659Z,990.61
2023-12-09T09:04:29.599Z,990.66
2023-12-09T09:05:29.674Z,990.65
2023-12-09T09:06:29.622Z,990.62
2023-12-09T09:07:29.600Z,990.61
2023-12-09T09:08:29.550Z,990.64
2023-12-09T09:09:29.690Z,990.60
2023-12-09T09:10:29.539Z,990.59
2023-12-09T09:11:29.546Z,990.60
2023-12-09T09:12:29.802Z,990.57
2023-12-09T09:13:30.433Z,990.49
2023-12-09T09:14:29.501Z,990.50
2023-12-09T09:15:29.642Z,990.52
2023-12-09T09:16:29.490Z,990.45
2023-12-09T09:17:29.583Z,990.41
2023-12-09T09:18:29.698Z,990.46
2023-12-09T09:19:30.548Z,990.41
2023-12-09T09:20:29.466Z,990.41
2023-12-09T09:21:29.519Z,990.50
2023-12-09T09:22:29.726Z,990.45
2023-12-09T09:23:30.302Z,990.40
2023-12-09T09:24:29.492Z,990.42
2023-12-09T09:25:29.480Z,990.40
2023-12-09T09:26:29.449Z,990.34
2023-12-09T09:27:29.483Z,990.39
2023-12-09T09:28:29.406Z,990.36
2023-12-09T09:29:29.411Z,990.38
2023-12-09T09:30:29.438Z,990.44
2023-12-09T09:31:29.404Z,990.39
2023-12-09T09:32:29.612Z,990.41
2023-12-09T09:33:31.877Z,990.35
2023-12-09T09:34:30.404Z,990.32
2023-12-09T09:35:29.354Z,990.20
2023-12-09T09:36:29.420Z,990.33
2023-12-09T09:37:29.363Z,990.29
2023-12-09T09:38:29.328Z,990.33
2023-12-09T09:39:29.348Z,990.26
2023-12-09T09:40:29.388Z,990.29
2023-12-09T09:41:29.326Z,990.19
2023-12-09T09:42:29.632Z,990.26
2023-12-09T09:43:29.292Z,990.31
2023-12-09T09:44:29.304Z,990.19
2023-12-09T09:45:32.101Z,990.19
2023-12-09T09:46:29.264Z,990.19
2023-12-09T09:47:29.277Z,990.15
2023-12-09T09:48:29.365Z,990.13
2023-12-09T09:49:29.310Z,990.10
2023-12-09T09:50:29.423Z,990.16
2023-12-09T09:51:29.276Z,990.12
2023-12-09T09:52:29.368Z,990.09
2023-12-09T09:53:29.213Z,990.10
2023-12-09T09:54:29.276Z,990.12
2023-12-09T09:55:29.546Z,990.09
2023-12-09T09:56:29.189Z,990.04
2023-12-09T09:57:29.326Z,990.04
2023-12-09T09:58:29.184Z,990.04
2023-12-09T09:59:29.193Z,989.97
2023-12-09T10:01:01.888Z,989.99
2023-12-09T10:01:29.174Z,989.96
2023-12-09T10:02:29.393Z,989.98
2023-12-09T10:03:29.188Z,990.00
2023-12-09T10:04:29.204Z,989.98
2023-12-09T10:05:29.117Z,989.94
2023-12-09T10:06:29.202Z,989.94
2023-12-09T10:07:29.153Z,989.83
2023-12-09T10:08:29.192Z,989.82
2023-12-09T10:09:29.216Z,989.88
2023-12-09T10:10:29.096Z,989.74
2023-12-09T10:11:29.069Z,989.78
2023-12-09T10:12:29.359Z,989.81
2023-12-09T10:13:29.080Z,989.83
2023-12-09T10:14:30.069Z,989.77
2023-12-09T10:15:29.070Z,989.80
2023-12-09T10:16:29.041Z,989.74
2023-12-09T10:17:29.044Z,989.82
2023-12-09T10:18:29.160Z,989.81
2023-12-09T10:19:29.113Z,989.77
2023-12-09T10:20:29.015Z,989.70
2023-12-09T10:21:29.069Z,989.72
2023-12-09T10:22:29.374Z,989.78
2023-12-09T10:23:29.025Z,989.74
2023-12-09T10:24:29.055Z,989.67
2023-12-09T10:25:28.996Z,989.71
2023-12-09T10:26:28.964Z,989.75
2023-12-09T10:27:29.028Z,989.67
2023-12-09T10:28:28.959Z,989.76
2023-12-09T10:29:28.937Z,989.66
2023-12-09T10:30:29.060Z,989.68
2023-12-09T10:31:28.934Z,989.69
2023-12-09T10:32:29.275Z,989.64
2023-12-09T10:33:29.145Z,989.60
2023-12-09T10:34:29.041Z,989.58
2023-12-09T10:35:28.911Z,989.60
2023-12-09T10:36:28.896Z,989.61
2023-12-09T10:37:28.925Z,989.58
2023-12-09T10:38:28.888Z,989.50
2023-12-09T10:39:28.901Z,989.43
2023-12-09T10:40:28.856Z,989.37
2023-12-09T10:41:28.881Z,989.34
2023-12-09T10:42:29.171Z,989.36
2023-12-09T10:43:28.843Z,989.36
2023-12-09T10:44:28.858Z,989.32
2023-12-09T10:45:28.890Z,989.25
2023-12-09T10:46:28.878Z,989.26
2023-12-09T10:47:28.883Z,989.16
2023-12-09T10:48:29.027Z,989.21
2023-12-09T10:49:28.871Z,989.14
2023-12-09T10:50:28.791Z,989.13
2023-12-09T10:51:28.866Z,989.15
2023-12-09T10:52:28.990Z,989.13
2023-12-09T10:53:28.774Z,989.09
2023-12-09T10:54:28.774Z,989.01
2023-12-09T10:55:28.773Z,988.97
2023-12-09T10:56:28.769Z,988.85
2023-12-09T10:57:28.760Z,988.85
2023-12-09T10:58:28.746Z,988.89
2023-12-09T10:59:28.728Z,988.83
2023-12-09T11:00:28.796Z,988.81
2023-12-09T11:01:28.772Z,988.85
2023-12-09T11:02:28.924Z,988.75
2023-12-09T11:03:28.749Z,988.72
2023-12-09T11:04:28.849Z,988.75
2023-12-09T11:05:28.736Z,988.62
2023-12-09T11:06:28.726Z,988.65
2023-12-09T11:07:28.674Z,988.67
2023-12-09T11:08:28.652Z,988.64
2023-12-09T11:09:28.711Z,988.66
2023-12-09T11:10:28.660Z,988.60
2023-12-09T11:11:28.623Z,988.55
2023-12-09T11:12:28.876Z,988.52
2023-12-09T11:13:28.993Z,988.46
2023-12-09T11:14:28.623Z,988.37
2023-12-09T11:15:28.614Z,988.47
2023-12-09T11:16:28.588Z,988.51
2023-12-09T11:17:28.789Z,988.42
2023-12-09T11:18:28.646Z,988.41
2023-12-09T11:19:28.715Z,988.44
2023-12-09T11:20:28.639Z,988.35
2023-12-09T11:21:28.609Z,988.32
2023-12-09T11:22:28.792Z,988.25
2023-12-09T11:23:28.574Z,988.22
2023-12-09T11:24:28.592Z,988.18
2023-12-09T11:25:28.544Z,987.99
2023-12-09T11:26:28.524Z,987.99
2023-12-09T11:27:28.548Z,987.96
2023-12-09T11:28:28.542Z,987.93
2023-12-09T11:29:28.503Z,987.91
2023-12-09T11:30:28.503Z,987.87
2023-12-09T11:31:28.483Z,987.82
2023-12-09T11:32:28.619Z,987.86
2023-12-09T11:33:28.575Z,987.85
2023-12-09T11:34:28.720Z,987.82
2023-12-09T11:35:28.459Z,987.79
2023-12-09T11:36:29.601Z,987.77
2023-12-09T11:37:29.514Z,987.78
2023-12-09T11:38:28.480Z,987.64
2023-12-09T11:39:28.459Z,987.69
2023-12-09T11:40:28.416Z,987.72
2023-12-09T11:41:28.418Z,987.70
2023-12-09T11:42:28.985Z,987.80
2023-12-09T11:43:28.420Z,987.81
2023-12-09T11:44:28.389Z,987.72
2023-12-09T11:45:28.531Z,987.66
2023-12-09T11:46:28.377Z,987.67
2023-12-09T11:47:28.410Z,987.67
2023-12-09T11:48:28.510Z,987.66
2023-12-09T11:49:28.439Z,987.69
2023-12-09T11:50:28.357Z,987.60
2023-12-09T11:51:28.432Z,987.58
2023-12-09T11:52:28.547Z,987.61
2023-12-09T11:53:29.373Z,987.67
2023-12-09T11:54:28.378Z,987.63
2023-12-09T11:55:28.292Z,987.62
2023-12-09T11:56:28.847Z,987.58
2023-12-09T11:57:28.338Z,987.54
2023-12-09T11:58:28.273Z,987.50
2023-12-09T11:59:28.263Z,987.57
2023-12-09T12:00:28.277Z,987.48
2023-12-09T12:01:28.289Z,987.48
2023-12-09T12:02:28.502Z,987.49
2023-12-09T12:03:28.300Z,987.52
2023-12-09T12:04:28.285Z,987.46
2023-12-09T12:05:28.885Z,987.32
2023-12-09T12:06:28.279Z,987.45
2023-12-09T12:07:28.207Z,987.35
2023-12-09T12:08:28.196Z,987.29
2023-12-09T12:09:28.202Z,987.25
2023-12-09T12:10:28.176Z,987.29
2023-12-09T12:11:28.210Z,987.17
2023-12-09T12:12:29.080Z,987.21
2023-12-09T12:13:28.154Z,987.18
2023-12-09T12:14:28.151Z,987.12
2023-12-09T12:15:28.201Z,987.04
2023-12-09T12:16:28.161Z,987.04
2023-12-09T12:17:28.195Z,986.96
2023-12-09T12:18:28.250Z,986.89
2023-12-09T12:19:28.135Z,986.90
2023-12-09T12:20:28.144Z,986.90
2023-12-09T12:21:28.180Z,986.89
2023-12-09T12:22:28.329Z,986.95
2023-12-09T12:23:32.728Z,986.94
2023-12-09T12:24:30.158Z,986.90
2023-12-09T12:25:28.104Z,986.85
2023-12-09T12:26:28.095Z,986.81
2023-12-09T12:27:28.092Z,986.82
2023-12-09T12:28:28.066Z,986.82